Arch, New Mexico
Current Conditions -  °F | °C
As of 2:58 AM on Monday 26 Jan 2015 (Local Time) from KCVS Reporting Station
Clear Clear  
Wind Chill: 29°   Ceiling: Unl
Heat Index: 37°   Visibility: 10mi
Dew Point: 27°   Wind: 10mph
Humidity: 68%   Direction: 310°NW
Pressure: 30.26"   Gusts: NA
Location:  34.1669°N, 103.266°W
Report Text: KCVS 260958Z AUTO 31009KT 10SM CLR 03/M03 A3026 RMK AO2 SLP241 T00251028 VISNO RWY22 $
Loading
Personal Weather Stations






























Interactive Weather Map New forecast layout! Learn more

10-Day Weather Forecast

Advertisements
Track Severe Weather on mobile